Venetie, Alaska
Current Conditions -  °F | °C
As of 3:56 AM on Thursday 30 Oct 2014 (Local Time) from PAFB Reporting Station
Overcast Overcast  
Wind Chill: 11°   Ceiling: 2800
Heat Index: 11°   Visibility: 10mi
Dew Point:   Wind: 0mph
Humidity: 81%   Direction: NA
Pressure: 29.8"   Gusts: NA
Location:  67.02°N, 146.43°W
Report Text: PAFB 301156Z AUTO 00000KT 10SM BKN028 BKN055 OVC070 M12/M14 A2980 RMK SNB08E29 SLP103 P0000 60000 T11171144 11117 21122 56002 $ VIA AUTODIAL
Loading
Personal Weather Stations






























Interactive Weather Map
Tropical Storm Tracking
New forecast layout! Learn more

10-Day Weather Forecast

Advertisements
Track Severe Weather on mobile